AL18 weather

Parker Field
Gardendale, Alabama, United States

Public forecast

Using degrees Fahrenheit for public forecast. Weather courtesy of forecast.io.

Closest aviation weather report (METAR) to Parker Field

Closest report is Birmingham-Shuttlesworth International Airport, 8.9 nm (16.4 km) SE. Retrieved 2019/10/14 00:53 UTC (1 hour ago):

KBHM 140053Z 00000KT 10SM -RA BKN110 13/10 A3012 RMK AO2 SLP198 P0000 T01280100

Closest aviation forecast (TAF) to Parker Field

Closest forecast is Birmingham-Shuttlesworth International Airport, 8.9 nm (16.4 km) SE. Retrieved 2019-10-14 00:22 UTC (2 hours ago):

TAF KBHM 132320Z 1400/1424 28006KT 6SM -RA BR OVC080 FM140400 VRB03KT P6SM OVC050 FM141500 VRB05KT P6SM OVC100